Aeroporto :







RITROVATECI SU...

 
LOGIN :

Iscrizione | Disclaimer

   EN    FR    IT 

 









Sommario :    VFR   VFR Marginale   IFR   IFR Intensivo   IFR Molto Intensivo
Visibilità : 
Base nubi : 
>= 8 km
>= 3000ft
5 / 8 km
1000 / 3000 ft
1500m / 5 km
500 / 1000 ft
800 / 1500m
200 / 500 ft
< 800m
< 200 ft
Simboli :   Temporali  Nebbia  Neve Forte  Precipitazioni Forti  Vento > 20 kt






- Altitudine del aeroporto : 654 ft


KAQW - Harriman and West

ULTIMO METAR :
  • 070152Z AUTO VRB04KT 10SM BKN017 OVC024 M02/M05 A3004 RMK AO2 SLP180 T10171050 TSNO

METARs OBSOLETI :
  • 070052Z AUTO VRB03KT 10SM BKN016 OVC022 M01/M04 A3000 RMK AO2 PK WND 27028/0009 SNE07 PRESRR SLP169 P0000 T10061039 TSNO
  • 062352Z AUTO 28014KT 7SM -SN OVC020 02/M02 A2993 RMK AO2 PK WND 27028/2337 RAB15E38UPB16E26SNB38 PRESRR SLP145 P0000 60004 T00171017 10028 21017 53021 TSNO

TAF N/A



MetMap, La meteo Aeronautica in un colpo d'occhio ! - Copyright ORBIFLY Dicembre 2007 - Disclaimer

ORBIFLY MET'MAP TEAM :

Programmazione e sviluppo : Alexandra Zaïnal
Concezione : Baudouin d'Aumeries
Aiuto per la programmazione : Marc-Olivier Méhu
Supporto tecnico e logistico : Manuel Goepfert
Aiuto per la traduzione : Arnaldo La Scala

Contatto : metmap@orbifly.com




FONTI E CREDITI :

   NOAA